DW3436 Moss NO current weather conditions

sailwx.info

Wind from 031 at 0 knots gusting 3

Air temperature 13.9° C
Dewpoint 6.7° C

Last reported at 2020-May-31 04:01 UTC.
Time now 2020-May-31 04:25 UTC

Location: N 59°26' E 010°38'.
View on Google Maps.

See reports from other nearby stations

  
Tides and Currents Weather Stations Pressure Air Temp Water Temp Dewpoint Dewpoint Depression Visibility Wind Speed Wind Dir Waves Ship Positions
date/time (UTC)wind fromknots sea level pressurealtimeterstation pressurevisibilityair tempwater tempwave heightnotes
2020-May-31 04:01 031 0 gusting 3 13.9
2020-May-31 03:47 031 0 gusting 2 13.3
2020-May-31 03:31 034 0 gusting 2 12.2
2020-May-31 03:17 030 1 gusting 4 12.2
2020-May-31 03:01 032 1 gusting 4 12.2
2020-May-31 02:46 041 0 gusting 3 12.2
2020-May-31 02:31 041 0 gusting 2 12.2
2020-May-31 02:16 041 12.2
2020-May-31 02:00 046 0 gusting 2 11.7
2020-May-31 01:45 063 1 gusting 5 12.2
2020-May-31 01:30 038 0 gusting 3 12.8
2020-May-31 01:16 036 1 gusting 3 12.8
2020-May-31 01:01 053 1 gusting 4 13.3
2020-May-31 00:47 064 14.4
2020-May-31 00:32 064 15.0
2020-May-31 00:16 064 15.0
2020-May-31 00:01 064 15.0
2020-May-30 23:48 064 15.0
2020-May-30 23:30 064 14.4
2020-May-30 23:15 064 15.0
2020-May-30 23:00 064 15.6
2020-May-30 22:45 064 16.1
2020-May-30 22:31 064 15.6
2020-May-30 22:16 064 15.6
2020-May-30 22:01 064 16.1
2020-May-30 21:46 065 16.7
2020-May-30 21:30 065 0 gusting 3 17.2
2020-May-30 21:15 059 0 gusting 3 17.8
2020-May-30 21:00 071 1 gusting 4 17.8
2020-May-30 20:45 065 1 gusting 6 18.3
2020-May-30 20:30 057 3 gusting 8 18.3
2020-May-30 20:15 076 0 gusting 4 18.9
2020-May-30 20:00 070 1 gusting 6 19.4
2020-May-30 19:46 055 0 gusting 6 20.0
2020-May-30 19:31 071 1 gusting 6 20.0
2020-May-30 19:16 069 1 gusting 6 20.6
2020-May-30 19:01 053 2 gusting 6 21.1
2020-May-30 18:45 065 2 gusting 6 21.1
2020-May-30 18:30 061 0 gusting 5 21.7
2020-May-30 18:15 042 0 gusting 6 22.2
2020-May-30 18:00 040 22.8
2020-May-30 17:31 355 0 gusting 5 22.8
2020-May-30 17:17 040 1 gusting 6 22.8
2020-May-30 17:00 355 3 gusting 6 22.8
2020-May-30 16:45 009 4 gusting 9 23.3
2020-May-30 16:30 360 1 gusting 9 22.8
2020-May-30 16:15 024 3 gusting 7 22.8
2020-May-30 16:01 064 2 gusting 10 22.8
2020-May-30 15:47 030 2 gusting 7 22.8
2020-May-30 15:30 338 1 gusting 6 22.2
2020-May-30 15:15 009 3 gusting 11 22.8
2020-May-30 15:00 311 3 gusting 10 22.8
2020-May-30 14:45 064 0 gusting 6 22.8
2020-May-30 14:30 027 2 gusting 10 22.2
2020-May-30 14:15 015 3 gusting 9 21.7
2020-May-30 14:00 028 3 gusting 8 22.2
2020-May-30 13:45 028 5 gusting 10 21.7
2020-May-30 13:30 005 2 gusting 9 22.2
2020-May-30 13:15 058 2 gusting 12 21.1
2020-May-30 13:01 050 4 gusting 14 21.7
2020-May-30 12:46 017 5 gusting 14 21.1
2020-May-30 12:30 347 4 gusting 9 20.6
2020-May-30 12:15 009 3 gusting 13 20.0
2020-May-30 12:00 295 4 gusting 12 20.0
2020-May-30 11:45 360 5 gusting 13 20.0
2020-May-30 11:30 020 6 gusting 13 20.0
2020-May-30 11:16 313 4 gusting 13 19.4
2020-May-30 11:00 325 2 gusting 8 19.4
2020-May-30 10:45 005 6 gusting 13 18.9
2020-May-30 10:30 077 3 gusting 10 19.4
2020-May-30 10:15 005 6 gusting 12 18.9
2020-May-30 10:00 341 3 gusting 7 18.9
2020-May-30 09:45 355 4 gusting 11 18.3
2020-May-30 09:30 014 4 gusting 6 18.3
2020-May-30 09:00 329 4 gusting 13 18.3
2020-May-30 08:45 343 2 gusting 9 17.2
2020-May-30 08:32 330 4 gusting 12 17.2
2020-May-30 08:16 015 4 gusting 12 17.2
2020-May-30 08:00 017 1 gusting 8 17.2
2020-May-30 07:45 052 0 gusting 6 17.2
2020-May-30 07:30 046 2 gusting 8 17.2
2020-May-30 07:15 019 1 gusting 8 16.7
2020-May-30 07:01 054 4 gusting 10 16.1
2020-May-30 06:45 019 3 gusting 9 16.1
2020-May-30 06:30 061 3 gusting 8 15.6
2020-May-30 06:15 035 1 gusting 6 15.6
2020-May-30 06:00 039 2 gusting 7 14.4
2020-May-30 05:45 024 2 gusting 7 14.4
2020-May-30 05:30 042 0 gusting 6 14.4
2020-May-30 05:15 041 3 gusting 7 13.9
2020-May-30 05:00 035 3 gusting 11 13.9
2020-May-30 04:31 044 2 gusting 9 13.3
2020-May-30 04:16 046 3 gusting 11 13.3
2020-May-30 04:01 047 3 gusting 12 13.3
2020-May-30 03:46 032 4 gusting 8 13.3
2020-May-30 03:30 347 2 gusting 7 13.3
2020-May-30 03:15 026 4 gusting 9 13.3
2020-May-30 03:01 005 3 gusting 8 13.3
2020-May-30 02:46 013 3 gusting 10 13.9
2020-May-30 02:31 011 3 gusting 9 13.9
2020-May-30 02:16 020 3 gusting 11 13.9
2020-May-30 02:01 009 3 gusting 9 14.4
2020-May-30 01:45 005 5 gusting 7 14.4
2020-May-30 01:30 355 4 gusting 7 14.4
2020-May-30 01:15 360 2 gusting 5 14.4
2020-May-30 01:00 021 2 gusting 6 14.4
2020-May-30 00:45 360 1 gusting 6 13.9
2020-May-30 00:30 014 12.8
2020-May-30 00:15 298 13.9
2020-May-30 00:02 296 14.4
2020-May-29 23:47 296 13.9
2020-May-29 23:31 296 14.4
2020-May-29 23:15 298 0 gusting 3 15.0
2020-May-29 23:00 267 1 gusting 3 15.0
2020-May-29 22:45 311 1 gusting 5 15.6
2020-May-29 22:31 292 1 gusting 4 15.6
2020-May-29 22:16 319 0 gusting 4 15.6
2020-May-29 22:01 291 0 gusting 2 16.1
2020-May-29 21:46 281 16.1
2020-May-29 21:30 281 16.1
2020-May-29 21:15 319 1 gusting 2 16.1
2020-May-29 21:01 202 16.1
2020-May-29 20:46 202 15.6
2020-May-29 20:30 202 16.1
2020-May-29 20:15 202 16.1
2020-May-29 20:00 202 16.7
2020-May-29 19:45 198 17.2
2020-May-29 19:16 225 1 gusting 3 17.8
2020-May-29 19:01 211 1 gusting 3 17.8
2020-May-29 18:46 205 1 gusting 6 17.8
2020-May-29 18:31 194 2 gusting 6 18.3
2020-May-29 18:15 217 2 gusting 5 18.3
2020-May-29 18:00 197 3 gusting 6 18.3
2020-May-29 17:31 218 2 gusting 6 18.3
2020-May-29 17:17 165 3 gusting 6 18.3
2020-May-29 17:01 210 2 gusting 6 18.3
2020-May-29 16:46 213 2 gusting 6 18.9
2020-May-29 16:30 147 4 gusting 6 18.9
2020-May-29 16:18 209 4 gusting 7 18.3
2020-May-29 16:02 182 5 gusting 8 18.3
2020-May-29 15:47 195 4 gusting 7 18.3
2020-May-29 15:31 210 4 gusting 10 18.3
2020-May-29 15:15 215 4 gusting 8 18.3
2020-May-29 15:00 185 5 gusting 10 17.8
2020-May-29 14:46 206 4 gusting 9 17.8
2020-May-29 14:32 180 5 gusting 9 17.8
2020-May-29 14:18 175 5 gusting 10 17.8
2020-May-29 14:01 216 6 gusting 11 16.7
2020-May-29 13:45 176 6 gusting 12 16.7
2020-May-29 13:30 200 5 gusting 9 17.2
2020-May-29 13:17 171 6 gusting 12 16.7
2020-May-29 13:01 188 5 gusting 8 16.7
2020-May-29 12:45 207 5 gusting 8 17.2
2020-May-29 12:31 203 4 gusting 8 17.2
2020-May-29 12:15 233 5 gusting 7 17.8
2020-May-29 12:01 180 2 gusting 6 17.8
2020-May-29 11:45 213 4 gusting 6 17.8
2020-May-29 11:30 203 3 gusting 7 17.8
2020-May-29 11:15 205 3 gusting 5 17.8
2020-May-29 11:00 184 2 gusting 6 17.2
2020-May-29 10:45 150 0 gusting 6 17.2
2020-May-29 10:30 194 3 gusting 6 16.7
2020-May-29 10:16 186 2 gusting 5 16.1
2020-May-29 10:01 177 3 gusting 6 16.1
2020-May-29 09:45 268 1 gusting 5 15.6
2020-May-29 09:31 259 2 gusting 5 15.0
2020-May-29 09:16 299 2 gusting 5 15.0
2020-May-29 09:00 337 3 gusting 5 15.0
2020-May-29 08:45 231 2 gusting 4 15.0
2020-May-29 08:31 273 0 gusting 2 14.4
2020-May-29 08:16 311 3 gusting 6 13.3
2020-May-29 08:00 275 1 gusting 6 13.3
2020-May-29 07:45 293 2 gusting 6 13.3
2020-May-29 07:30 305 1 gusting 4 15.0
2020-May-29 07:16 036 0 gusting 2 14.4
2020-May-29 07:01 065 13.9
2020-May-29 06:46 027 0 gusting 3 12.8
2020-May-29 06:31 022 0 gusting 3 12.8
2020-May-29 06:15 034 0 gusting 3 12.8
2020-May-29 06:00 032 1 gusting 3 12.8
2020-May-29 05:46 034 12.2
2020-May-29 05:31 014 0 gusting 5 11.7
2020-May-29 05:15 043 1 gusting 5 11.7
2020-May-29 05:00 022 2 gusting 5 11.1
2020-May-29 04:45 030 0 gusting 2 10.6
2020-May-29 04:30 028 0 gusting 4 10.6
2020-May-29 04:15 355 10.0
2020-May-29 04:01 066 9.4